createdAt,value
2024-01-15T00:02:21.457Z,-22.56
2024-01-15T00:05:25.953Z,-22.59
2024-01-15T00:08:29.130Z,-22.60
2024-01-15T00:11:32.828Z,-22.53
2024-01-15T00:14:36.513Z,-22.56
2024-01-15T00:17:41.054Z,-22.52
2024-01-15T00:20:44.184Z,-22.38
2024-01-15T00:23:48.297Z,-22.49
2024-01-15T00:26:51.272Z,-22.51
2024-01-15T00:29:56.438Z,-22.46
2024-01-15T00:33:00.122Z,-22.48
2024-01-15T00:36:07.328Z,-22.48
2024-01-15T00:39:21.428Z,-22.55
2024-01-15T00:42:24.837Z,-22.64
2024-01-15T00:45:28.722Z,-22.70
2024-01-15T00:48:32.478Z,-22.57
2024-01-15T00:51:39.336Z,-22.52
2024-01-15T00:54:43.704Z,-22.56
2024-01-15T00:57:47.596Z,-22.51
2024-01-15T01:00:51.997Z,-22.42
2024-01-15T01:03:59.704Z,-22.52
2024-01-15T01:07:04.277Z,-22.67
2024-01-15T01:10:08.433Z,-22.71
2024-01-15T01:13:12.380Z,-22.71
2024-01-15T01:16:17.723Z,-22.60
2024-01-15T01:19:20.936Z,-22.73
2024-01-15T01:22:24.725Z,-22.59
2024-01-15T01:25:28.974Z,-22.48
2024-01-15T01:28:32.685Z,-22.64
2024-01-15T01:31:37.566Z,-22.51
2024-01-15T01:34:44.647Z,-22.32
2024-01-15T01:37:48.472Z,-22.20
2024-01-15T01:40:52.211Z,-22.15
2024-01-15T01:43:56.231Z,-22.46
2024-01-15T01:47:03.438Z,-22.69
2024-01-15T01:50:08.360Z,-22.74
2024-01-15T01:53:12.431Z,-22.74
2024-01-15T01:56:16.961Z,-22.77
2024-01-15T01:59:23.052Z,-22.83
2024-01-15T02:02:27.213Z,-22.83
2024-01-15T02:05:30.832Z,-22.64
2024-01-15T02:08:34.129Z,-22.35
2024-01-15T02:11:37.831Z,-22.04
2024-01-15T02:14:41.654Z,-21.87
2024-01-15T02:18:05.535Z,-21.81
2024-01-15T02:21:08.718Z,-21.58
2024-01-15T02:24:12.204Z,-21.43
2024-01-15T02:27:15.774Z,-21.30
2024-01-15T02:30:19.419Z,-21.20
2024-01-15T02:33:22.937Z,-21.24
2024-01-15T02:36:26.292Z,-21.13
2024-01-15T02:39:31.148Z,-21.04
2024-01-15T02:42:35.029Z,-20.89
2024-01-15T02:45:39.299Z,-20.75
2024-01-15T02:48:46.106Z,-20.71
2024-01-15T02:51:50.144Z,-20.61
2024-01-15T02:54:53.793Z,-20.52
2024-01-15T02:57:58.057Z,-20.36
2024-01-15T03:01:04.110Z,-20.13
2024-01-15T03:04:07.365Z,-20.14
2024-01-15T03:07:10.849Z,-20.06
2024-01-15T03:10:13.923Z,-19.95
2024-01-15T03:13:17.301Z,-19.75
2024-01-15T03:16:21.586Z,-19.67
2024-01-15T03:19:24.632Z,-19.51
2024-01-15T03:22:29.716Z,-19.47
2024-01-15T03:25:33.278Z,-19.36
2024-01-15T03:28:36.328Z,-19.54
2024-01-15T03:31:39.405Z,-19.43
2024-01-15T03:34:42.613Z,-19.38
2024-01-15T03:37:46.677Z,-19.26
2024-01-15T03:40:50.316Z,-19.27
2024-01-15T03:43:53.568Z,-19.20
2024-01-15T03:46:57.420Z,-19.13
2024-01-15T03:50:03.674Z,-19.09
2024-01-15T03:53:10.275Z,-19.24
2024-01-15T03:56:14.565Z,-19.34
2024-01-15T03:59:18.794Z,-19.20
2024-01-15T04:02:22.423Z,-19.03
2024-01-15T04:05:26.429Z,-19.00
2024-01-15T04:08:31.257Z,-18.89
2024-01-15T04:11:35.318Z,-18.96
2024-01-15T04:14:39.046Z,-18.89
2024-01-15T04:17:42.237Z,-18.88
2024-01-15T04:20:48.172Z,-18.81
2024-01-15T04:23:52.515Z,-18.81
2024-01-15T04:26:55.676Z,-18.82
2024-01-15T04:29:59.013Z,-18.64
2024-01-15T04:33:05.044Z,-18.50
2024-01-15T04:36:08.940Z,-18.37
2024-01-15T04:39:13.490Z,-18.26
2024-01-15T04:42:17.805Z,-18.22
2024-01-15T04:45:23.710Z,-18.18
2024-01-15T04:48:28.042Z,-18.14
2024-01-15T04:51:34.070Z,-18.08
2024-01-15T04:54:38.531Z,-18.00
2024-01-15T04:57:41.581Z,-17.93
2024-01-15T05:00:45.195Z,-17.98
2024-01-15T05:03:49.144Z,-17.93
2024-01-15T05:06:53.107Z,-18.04
2024-01-15T05:09:56.295Z,-17.80
2024-01-15T05:13:00.009Z,-17.78
2024-01-15T05:16:06.741Z,-17.58
2024-01-15T05:19:10.772Z,-17.62
2024-01-15T05:22:14.906Z,-17.55
2024-01-15T05:25:18.133Z,-17.43
2024-01-15T05:28:22.529Z,-17.24
2024-01-15T05:31:26.322Z,-17.18
2024-01-15T05:34:30.012Z,-17.08
2024-01-15T05:37:36.176Z,-17.01
2024-01-15T05:40:39.428Z,-16.86
2024-01-15T05:43:42.447Z,-16.99
2024-01-15T05:46:46.193Z,-16.83
2024-01-15T05:49:49.969Z,-16.32
2024-01-15T05:52:53.685Z,-16.25
2024-01-15T05:55:58.529Z,-16.39
2024-01-15T05:59:05.227Z,-16.45
2024-01-15T06:02:08.594Z,-16.51
2024-01-15T06:05:11.614Z,-16.48
2024-01-15T06:08:16.769Z,-16.49
2024-01-15T06:11:19.897Z,-16.44
2024-01-15T06:14:27.774Z,-16.41
2024-01-15T06:17:33.926Z,-16.27
2024-01-15T06:20:39.027Z,-16.18
2024-01-15T06:23:42.388Z,-16.09
2024-01-15T06:26:46.068Z,-16.06
2024-01-15T06:29:50.791Z,-15.96
2024-01-15T06:32:54.591Z,-15.90
2024-01-15T06:35:59.315Z,-15.83
2024-01-15T06:39:07.003Z,-15.75
2024-01-15T06:42:11.323Z,-15.47
2024-01-15T06:45:16.981Z,-14.70
2024-01-15T06:48:20.890Z,-14.21
2024-01-15T06:51:25.195Z,-13.71
2024-01-15T06:54:28.530Z,-14.01
2024-01-15T06:57:32.136Z,-14.33
2024-01-15T07:00:36.363Z,-14.50
2024-01-15T07:03:40.951Z,-14.59
2024-01-15T07:06:44.998Z,-14.67
2024-01-15T07:09:48.685Z,-14.82
2024-01-15T07:12:51.934Z,-15.03
2024-01-15T07:15:55.605Z,-15.09
2024-01-15T07:18:59.344Z,-15.17
2024-01-15T07:22:05.133Z,-15.23
2024-01-15T07:25:08.522Z,-15.36
2024-01-15T07:28:12.111Z,-15.38
2024-01-15T07:31:17.207Z,-15.58
2024-01-15T07:34:21.095Z,-15.68
2024-01-15T07:37:25.005Z,-15.76
2024-01-15T07:40:28.063Z,-15.92
2024-01-15T07:43:31.793Z,-16.14
2024-01-15T07:46:35.557Z,-16.34
2024-01-15T07:49:39.249Z,-16.45
2024-01-15T07:52:45.721Z,-16.51
2024-01-15T07:55:49.659Z,-16.48
2024-01-15T07:58:53.394Z,-16.42
2024-01-15T08:02:01.776Z,-16.37
2024-01-15T08:05:08.549Z,-16.24
2024-01-15T08:08:12.546Z,-16.20
2024-01-15T08:11:16.406Z,-16.11
2024-01-15T08:14:21.500Z,-16.07
2024-01-15T08:17:25.291Z,-16.09
2024-01-15T08:20:28.731Z,-16.06
2024-01-15T08:23:33.023Z,-16.06
2024-01-15T08:26:45.849Z,-16.09
2024-01-15T08:29:52.102Z,-16.09
2024-01-15T08:33:08.176Z,-16.11
2024-01-15T08:36:17.889Z,-16.17
2024-01-15T08:39:22.246Z,-16.25
2024-01-15T08:42:26.393Z,-16.32
2024-01-15T08:45:32.323Z,-16.35
2024-01-15T08:48:37.817Z,-16.35
2024-01-15T08:51:42.743Z,-16.31
2024-01-15T08:54:46.963Z,-16.31
2024-01-15T08:57:52.117Z,-16.32
2024-01-15T09:00:55.880Z,-16.30
2024-01-15T09:04:00.420Z,-16.30
2024-01-15T09:07:06.486Z,-16.34
2024-01-15T09:10:10.917Z,-16.34
2024-01-15T09:13:14.591Z,-16.32
2024-01-15T09:16:19.132Z,-16.38
2024-01-15T09:19:23.054Z,-16.45
2024-01-15T09:22:26.537Z,-16.51
2024-01-15T09:25:30.742Z,-16.60
2024-01-15T09:28:34.871Z,-16.62
2024-01-15T09:31:38.935Z,-16.75
2024-01-15T09:34:43.814Z,-16.84
2024-01-15T09:37:50.566Z,-16.93
2024-01-15T09:40:54.451Z,-17.03
2024-01-15T09:43:57.564Z,-17.07
2024-01-15T09:47:01.824Z,-17.11
2024-01-15T09:50:08.791Z,-17.15
2024-01-15T09:53:16.863Z,-17.14
2024-01-15T09:56:21.537Z,-17.15
2024-01-15T09:59:26.226Z,-17.21
2024-01-15T10:02:29.324Z,-17.22
2024-01-15T10:05:33.071Z,-17.25
2024-01-15T10:08:39.475Z,-17.27
2024-01-15T10:11:44.644Z,-17.30
2024-01-15T10:14:48.068Z,-17.39
2024-01-15T10:17:52.908Z,-17.41
2024-01-15T10:20:58.641Z,-17.46
2024-01-15T10:24:03.052Z,-17.46
2024-01-15T10:27:11.961Z,-17.50
2024-01-15T10:30:16.559Z,-17.56
2024-01-15T10:33:27.662Z,-17.59
2024-01-15T10:36:33.110Z,-17.55
2024-01-15T10:39:37.637Z,-17.39
2024-01-15T10:42:41.471Z,-17.32
2024-01-15T10:45:49.548Z,-17.28
2024-01-15T10:48:53.106Z,-17.27
2024-01-15T10:51:58.076Z,-17.25
2024-01-15T10:55:06.812Z,-17.24
2024-01-15T10:58:14.671Z,-17.42
2024-01-15T11:01:19.516Z,-17.53
2024-01-15T11:04:25.232Z,-17.65
2024-01-15T11:07:29.696Z,-17.71
2024-01-15T11:10:48.626Z,-17.73
2024-01-15T11:13:54.248Z,-17.74
2024-01-15T11:17:01.522Z,-17.71
2024-01-15T11:20:09.514Z,-17.65
2024-01-15T11:23:51.385Z,-17.65
2024-01-15T11:26:58.548Z,-17.65
2024-01-15T11:30:09.748Z,-17.71
2024-01-15T11:33:36.174Z,-17.77
2024-01-15T11:36:52.301Z,-17.87
2024-01-15T11:39:57.754Z,-18.04
2024-01-15T11:43:02.127Z,-18.09
2024-01-15T11:46:09.859Z,-18.07
2024-01-15T11:49:21.234Z,-17.94
2024-01-15T11:52:25.369Z,-17.93
2024-01-15T11:55:37.983Z,-18.02
2024-01-15T11:58:41.856Z,-18.11
2024-01-15T12:01:46.588Z,-18.21
2024-01-15T12:04:50.517Z,-18.28
2024-01-15T12:07:54.715Z,-18.25
2024-01-15T12:10:59.367Z,-18.32
2024-01-15T12:14:03.742Z,-18.30
2024-01-15T12:17:13.543Z,-18.29
2024-01-15T12:20:17.985Z,-18.28
2024-01-15T12:23:21.024Z,-18.44
2024-01-15T12:26:25.235Z,-18.65
2024-01-15T12:29:32.615Z,-18.84
2024-01-15T12:32:36.523Z,-19.10
2024-01-15T12:35:41.387Z,-19.24
2024-01-15T12:38:46.428Z,-19.19
2024-01-15T12:41:50.240Z,-19.16
2024-01-15T12:44:53.930Z,-19.15
2024-01-15T12:47:58.181Z,-19.12
2024-01-15T12:51:01.836Z,-19.15
2024-01-15T12:54:09.867Z,-19.22
2024-01-15T12:57:13.270Z,-19.26
2024-01-15T13:00:17.367Z,-19.22
2024-01-15T13:03:21.684Z,-19.08
2024-01-15T13:06:25.401Z,-18.88
2024-01-15T13:09:29.866Z,-18.89
2024-01-15T13:12:33.285Z,-18.96
2024-01-15T13:15:36.722Z,-19.19
2024-01-15T13:18:40.633Z,-19.24
2024-01-15T13:21:48.642Z,-19.23
2024-01-15T13:24:52.161Z,-19.24
2024-01-15T13:27:56.505Z,-19.29
2024-01-15T13:30:59.827Z,-19.46
2024-01-15T13:34:03.723Z,-19.41
2024-01-15T13:37:09.602Z,-19.40
2024-01-15T13:40:39.056Z,-19.46
2024-01-15T13:43:47.748Z,-19.46
2024-01-15T13:46:51.527Z,-19.58
2024-01-15T13:49:55.440Z,-19.55
2024-01-15T13:52:59.873Z,-19.75
2024-01-15T13:56:04.139Z,-19.78
2024-01-15T13:59:16.737Z,-20.03
2024-01-15T14:02:23.159Z,-19.86
2024-01-15T14:05:28.642Z,-19.75
2024-01-15T14:08:31.823Z,-19.77
2024-01-15T14:11:35.552Z,-19.67
2024-01-15T14:14:38.459Z,-19.55
2024-01-15T14:17:43.595Z,-19.54
2024-01-15T14:20:49.861Z,-19.67
2024-01-15T14:23:54.006Z,-19.77
2024-01-15T14:26:57.125Z,-20.08
2024-01-15T14:30:00.586Z,-20.03
2024-01-15T14:33:04.012Z,-19.89
2024-01-15T14:36:12.058Z,-19.85
2024-01-15T14:39:15.469Z,-19.78
2024-01-15T14:42:22.220Z,-19.71
2024-01-15T14:45:25.933Z,-19.65
2024-01-15T14:48:30.146Z,-19.83
2024-01-15T14:51:34.269Z,-19.91
2024-01-15T14:54:37.826Z,-20.02
2024-01-15T14:57:41.570Z,-20.08
2024-01-15T15:00:45.617Z,-20.09
2024-01-15T15:03:49.812Z,-20.17
2024-01-15T15:06:53.280Z,-20.20
2024-01-15T15:09:57.346Z,-20.17
2024-01-15T15:13:01.700Z,-20.16
2024-01-15T15:16:13.527Z,-20.03
2024-01-15T15:19:19.641Z,-19.95
2024-01-15T15:22:25.365Z,-20.16
2024-01-15T15:25:29.597Z,-20.66
2024-01-15T15:28:33.188Z,-21.11
2024-01-15T15:31:36.544Z,-21.42
2024-01-15T15:34:40.398Z,-21.35
2024-01-15T15:37:43.990Z,-21.20
2024-01-15T15:40:47.675Z,-21.10
2024-01-15T15:43:51.134Z,-20.99
2024-01-15T15:47:00.813Z,-21.02
2024-01-15T15:50:05.050Z,-20.95
2024-01-15T15:53:11.388Z,-20.92
2024-01-15T15:56:15.613Z,-20.85
2024-01-15T15:59:20.361Z,-20.89
2024-01-15T16:02:25.038Z,-20.76
2024-01-15T16:05:37.786Z,-20.93
2024-01-15T16:08:49.091Z,-21.02
2024-01-15T16:11:53.265Z,-21.02
2024-01-15T16:14:57.340Z,-20.95
2024-01-15T16:23:18.448Z,-20.86
2024-01-15T16:23:36.417Z,-20.79
2024-01-15T16:24:53.621Z,-20.75
2024-01-15T16:27:58.509Z,-20.66
2024-01-15T16:31:07.903Z,-20.45
2024-01-15T16:34:17.085Z,-20.33
2024-01-15T16:37:21.181Z,-20.41
2024-01-15T16:40:26.633Z,-20.57
2024-01-15T16:43:30.752Z,-20.61
2024-01-15T16:46:34.400Z,-20.54
2024-01-15T16:49:38.868Z,-20.58
2024-01-15T16:52:42.644Z,-20.64
2024-01-15T16:55:46.690Z,-20.62
2024-01-15T16:58:50.493Z,-20.62
2024-01-15T17:01:54.873Z,-20.52
2024-01-15T17:04:58.779Z,-20.66
2024-01-15T17:08:02.738Z,-20.65
2024-01-15T17:11:06.539Z,-20.57
2024-01-15T17:14:13.728Z,-20.58
2024-01-15T17:17:17.717Z,-20.49
2024-01-15T17:20:22.247Z,-20.52
2024-01-15T17:23:27.436Z,-20.72
2024-01-15T17:26:31.663Z,-20.83
2024-01-15T17:29:35.624Z,-20.92
2024-01-15T17:32:39.821Z,-20.93
2024-01-15T17:35:58.744Z,-20.90
2024-01-15T17:39:02.723Z,-20.92
2024-01-15T17:42:06.714Z,-21.17
2024-01-15T17:45:14.789Z,-21.36
2024-01-15T17:48:18.778Z,-21.53
2024-01-15T17:51:23.417Z,-21.49
2024-01-15T17:54:27.187Z,-21.52
2024-01-15T17:57:31.242Z,-21.45
2024-01-15T18:00:35.817Z,-21.69
2024-01-15T18:03:41.051Z,-21.66
2024-01-15T18:06:44.739Z,-21.48
2024-01-15T18:09:48.801Z,-21.49
2024-01-15T18:12:52.450Z,-21.42
2024-01-15T18:16:00.352Z,-21.35
2024-01-15T18:19:04.044Z,-21.31
2024-01-15T18:22:08.101Z,-21.31
2024-01-15T18:25:14.533Z,-21.59
2024-01-15T18:28:18.537Z,-21.62
2024-01-15T18:31:22.158Z,-21.69
2024-01-15T18:34:26.067Z,-22.04
2024-01-15T18:37:30.190Z,-22.34
2024-01-15T18:40:37.099Z,-22.46
2024-01-15T18:43:40.470Z,-22.36
2024-01-15T18:46:46.838Z,-22.12
2024-01-15T18:49:50.589Z,-21.93
2024-01-15T18:52:55.639Z,-21.76
2024-01-15T18:55:59.421Z,-21.60
2024-01-15T18:59:03.762Z,-21.66
2024-01-15T19:02:07.282Z,-21.73
2024-01-15T19:05:13.460Z,-21.73
2024-01-15T19:08:16.629Z,-21.69
2024-01-15T19:11:21.179Z,-21.73
2024-01-15T19:14:24.360Z,-21.89
2024-01-15T19:17:28.082Z,-22.09
2024-01-15T19:20:32.836Z,-22.14
2024-01-15T19:23:36.406Z,-22.18
2024-01-15T19:26:40.281Z,-22.28
2024-01-15T19:29:44.046Z,-22.42
2024-01-15T19:32:48.097Z,-22.43
2024-01-15T19:35:52.514Z,-22.29
2024-01-15T19:38:55.721Z,-22.24
2024-01-15T19:42:00.183Z,-22.15
2024-01-15T19:45:03.822Z,-22.04
2024-01-15T19:48:08.431Z,-21.97
2024-01-15T19:51:19.506Z,-21.86
2024-01-15T19:54:23.648Z,-21.74
2024-01-15T19:57:26.970Z,-21.67
2024-01-15T20:00:30.956Z,-21.60
2024-01-15T20:03:34.714Z,-21.51
2024-01-15T20:06:38.698Z,-21.34
2024-01-15T20:09:42.917Z,-21.31
2024-01-15T20:12:47.364Z,-21.27
2024-01-15T20:15:50.961Z,-21.18
2024-01-15T20:18:55.369Z,-21.38
2024-01-15T20:21:59.360Z,-21.86
2024-01-15T20:25:03.889Z,-22.28
2024-01-15T20:28:08.152Z,-22.69
2024-01-15T20:31:15.308Z,-22.92
2024-01-15T20:34:18.540Z,-22.94
2024-01-15T20:37:22.615Z,-23.00
2024-01-15T20:40:26.221Z,-23.02
2024-01-15T20:43:30.506Z,-22.98
2024-01-15T20:46:34.268Z,-23.07
2024-01-15T20:49:39.756Z,-23.15
2024-01-15T20:52:43.566Z,-23.15
2024-01-15T20:55:47.126Z,-23.11
2024-01-15T20:58:50.242Z,-22.94
2024-01-15T21:01:53.368Z,-22.83
2024-01-15T21:04:57.039Z,-22.66
2024-01-15T21:08:04.608Z,-22.62
2024-01-15T21:11:08.483Z,-22.48
2024-01-15T21:14:15.201Z,-22.39
2024-01-15T21:17:18.661Z,-22.39
2024-01-15T21:20:22.244Z,-22.31
2024-01-15T21:23:25.439Z,-22.29
2024-01-15T21:26:29.145Z,-22.29
2024-01-15T21:29:32.251Z,-22.26
2024-01-15T21:32:35.915Z,-22.24
2024-01-15T21:35:40.008Z,-22.11
2024-01-15T21:38:44.191Z,-21.96
2024-01-15T21:41:48.693Z,-22.14
2024-01-15T21:44:52.329Z,-22.17
2024-01-15T21:47:56.281Z,-22.11
2024-01-15T21:50:59.632Z,-22.01
2024-01-15T21:54:03.358Z,-21.89
2024-01-15T21:57:06.785Z,-21.84
2024-01-15T22:00:11.023Z,-21.84
2024-01-15T22:03:15.864Z,-21.83
2024-01-15T22:06:19.572Z,-21.84
2024-01-15T22:09:22.583Z,-21.81
2024-01-15T22:12:25.524Z,-21.71
2024-01-15T22:15:29.279Z,-21.65
2024-01-15T22:18:33.746Z,-21.62
2024-01-15T22:21:44.924Z,-21.56
2024-01-15T22:24:49.352Z,-21.55
2024-01-15T22:27:53.325Z,-21.55
2024-01-15T22:30:56.614Z,-21.45
2024-01-15T22:34:01.917Z,-21.51
2024-01-15T22:37:06.394Z,-21.58
2024-01-15T22:40:11.641Z,-21.60
2024-01-15T22:43:18.950Z,-21.59
2024-01-15T22:46:22.092Z,-21.55
2024-01-15T22:49:25.986Z,-21.51
2024-01-15T22:52:32.283Z,-21.39
2024-01-15T22:55:35.718Z,-21.35
2024-01-15T22:58:38.715Z,-21.45
2024-01-15T23:01:42.440Z,-21.48
2024-01-15T23:04:46.219Z,-21.48
2024-01-15T23:07:53.035Z,-21.32
2024-01-15T23:10:56.846Z,-21.20
2024-01-15T23:13:59.902Z,-21.15
2024-01-15T23:17:03.601Z,-21.17
2024-01-15T23:20:06.894Z,-21.23
2024-01-15T23:23:11.916Z,-21.43
2024-01-15T23:26:17.195Z,-21.59
2024-01-15T23:29:20.258Z,-21.63
2024-01-15T23:32:23.795Z,-21.65
2024-01-15T23:35:27.591Z,-21.65
2024-01-15T23:38:31.516Z,-21.70
2024-01-15T23:41:40.310Z,-21.76
2024-01-15T23:44:44.697Z,-21.97
2024-01-15T23:47:48.485Z,-22.01
2024-01-15T23:50:52.360Z,-22.14
2024-01-15T23:53:55.297Z,-22.07
2024-01-15T23:56:59.998Z,-22.02
